sensor_id;sensor_type;location;lat;lon;timestamp;P1;durP1;ratioP1;P2;durP2;ratioP2
10934;SDS011;5520;45.752;4.874;2022-09-03T00:01:56;7.20;;;5.50;;
10934;SDS011;5520;45.752;4.874;2022-09-03T00:04:26;7.60;;;5.27;;
10934;SDS011;5520;45.752;4.874;2022-09-03T00:06:59;6.57;;;5.30;;
10934;SDS011;5520;45.752;4.874;2022-09-03T00:09:30;9.13;;;6.00;;
10934;SDS011;5520;45.752;4.874;2022-09-03T00:12:01;9.90;;;6.40;;
10934;SDS011;5520;45.752;4.874;2022-09-03T00:14:32;8.40;;;5.57;;
10934;SDS011;5520;45.752;4.874;2022-09-03T00:17:02;8.60;;;5.63;;
10934;SDS011;5520;45.752;4.874;2022-09-03T00:19:32;9.87;;;7.17;;
10934;SDS011;5520;45.752;4.874;2022-09-03T00:22:04;7.23;;;5.60;;
10934;SDS011;5520;45.752;4.874;2022-09-03T00:24:37;7.07;;;5.67;;
10934;SDS011;5520;45.752;4.874;2022-09-03T00:27:06;8.80;;;5.40;;
10934;SDS011;5520;45.752;4.874;2022-09-03T00:29:38;7.37;;;5.43;;
10934;SDS011;5520;45.752;4.874;2022-09-03T00:32:10;8.03;;;5.60;;
10934;SDS011;5520;45.752;4.874;2022-09-03T00:34:40;6.13;;;5.37;;
10934;SDS011;5520;45.752;4.874;2022-09-03T00:37:11;9.77;;;5.80;;
10934;SDS011;5520;45.752;4.874;2022-09-03T00:39:41;9.10;;;5.50;;
10934;SDS011;5520;45.752;4.874;2022-09-03T00:42:13;6.67;;;5.53;;
10934;SDS011;5520;45.752;4.874;2022-09-03T00:45:00;6.73;;;6.00;;
10934;SDS011;5520;45.752;4.874;2022-09-03T00:47:32;7.30;;;5.77;;
10934;SDS011;5520;45.752;4.874;2022-09-03T00:50:06;6.90;;;6.20;;
10934;SDS011;5520;45.752;4.874;2022-09-03T00:52:41;9.27;;;6.27;;
10934;SDS011;5520;45.752;4.874;2022-09-03T00:55:13;9.53;;;6.40;;
10934;SDS011;5520;45.752;4.874;2022-09-03T00:57:45;7.20;;;5.80;;
10934;SDS011;5520;45.752;4.874;2022-09-03T01:00:18;8.43;;;5.30;;
10934;SDS011;5520;45.752;4.874;2022-09-03T01:02:50;8.13;;;5.87;;
10934;SDS011;5520;45.752;4.874;2022-09-03T01:05:25;6.73;;;5.37;;
10934;SDS011;5520;45.752;4.874;2022-09-03T01:08:01;9.57;;;6.13;;
10934;SDS011;5520;45.752;4.874;2022-09-03T01:10:32;7.70;;;5.40;;
10934;SDS011;5520;45.752;4.874;2022-09-03T01:13:06;10.73;;;6.60;;
10934;SDS011;5520;45.752;4.874;2022-09-03T01:15:43;8.13;;;6.27;;
10934;SDS011;5520;45.752;4.874;2022-09-03T01:18:15;8.90;;;6.43;;
10934;SDS011;5520;45.752;4.874;2022-09-03T01:20:49;10.33;;;7.10;;
10934;SDS011;5520;45.752;4.874;2022-09-03T01:23:31;12.07;;;6.87;;
10934;SDS011;5520;45.752;4.874;2022-09-03T01:26:05;11.83;;;6.60;;
10934;SDS011;5520;45.752;4.874;2022-09-03T01:28:43;8.60;;;6.37;;
10934;SDS011;5520;45.752;4.874;2022-09-03T01:31:15;12.23;;;6.90;;
10934;SDS011;5520;45.752;4.874;2022-09-03T01:33:48;8.73;;;6.17;;
10934;SDS011;5520;45.752;4.874;2022-09-03T01:36:18;8.07;;;5.97;;
10934;SDS011;5520;45.752;4.874;2022-09-03T01:38:51;9.40;;;6.27;;
10934;SDS011;5520;45.752;4.874;2022-09-03T01:41:23;9.03;;;6.40;;
10934;SDS011;5520;45.752;4.874;2022-09-03T01:44:25;13.23;;;7.63;;
10934;SDS011;5520;45.752;4.874;2022-09-03T01:46:59;12.37;;;6.57;;
10934;SDS011;5520;45.752;4.874;2022-09-03T01:49:37;11.03;;;7.00;;
10934;SDS011;5520;45.752;4.874;2022-09-03T01:52:09;9.90;;;7.40;;
10934;SDS011;5520;45.752;4.874;2022-09-03T01:54:44;7.47;;;6.40;;
10934;SDS011;5520;45.752;4.874;2022-09-03T01:57:25;10.13;;;7.10;;
10934;SDS011;5520;45.752;4.874;2022-09-03T02:00:05;12.33;;;7.40;;
10934;SDS011;5520;45.752;4.874;2022-09-03T02:02:33;12.27;;;7.73;;
10934;SDS011;5520;45.752;4.874;2022-09-03T02:05:03;9.33;;;7.43;;
10934;SDS011;5520;45.752;4.874;2022-09-03T02:07:34;12.53;;;9.10;;
10934;SDS011;5520;45.752;4.874;2022-09-03T02:10:03;11.97;;;8.10;;
10934;SDS011;5520;45.752;4.874;2022-09-03T02:12:31;8.27;;;7.20;;
10934;SDS011;5520;45.752;4.874;2022-09-03T02:15:01;8.93;;;7.57;;
10934;SDS011;5520;45.752;4.874;2022-09-03T02:17:31;9.43;;;8.23;;
10934;SDS011;5520;45.752;4.874;2022-09-03T02:20:01;9.73;;;7.53;;
10934;SDS011;5520;45.752;4.874;2022-09-03T02:22:31;8.70;;;7.23;;
10934;SDS011;5520;45.752;4.874;2022-09-03T02:24:59;8.40;;;7.17;;
10934;SDS011;5520;45.752;4.874;2022-09-03T02:27:27;9.87;;;7.40;;
10934;SDS011;5520;45.752;4.874;2022-09-03T02:29:55;11.03;;;6.93;;
10934;SDS011;5520;45.752;4.874;2022-09-03T02:32:23;9.70;;;7.17;;
10934;SDS011;5520;45.752;4.874;2022-09-03T02:34:53;9.70;;;6.63;;
10934;SDS011;5520;45.752;4.874;2022-09-03T02:37:21;11.40;;;7.37;;
10934;SDS011;5520;45.752;4.874;2022-09-03T02:39:49;9.80;;;7.33;;
10934;SDS011;5520;45.752;4.874;2022-09-03T02:42:18;10.33;;;7.20;;
10934;SDS011;5520;45.752;4.874;2022-09-03T02:44:47;9.43;;;7.23;;
10934;SDS011;5520;45.752;4.874;2022-09-03T02:47:17;9.67;;;7.50;;
10934;SDS011;5520;45.752;4.874;2022-09-03T02:49:46;10.67;;;7.27;;
10934;SDS011;5520;45.752;4.874;2022-09-03T02:52:15;8.63;;;7.20;;
10934;SDS011;5520;45.752;4.874;2022-09-03T02:54:43;9.30;;;8.07;;
10934;SDS011;5520;45.752;4.874;2022-09-03T02:57:12;11.33;;;6.87;;
10934;SDS011;5520;45.752;4.874;2022-09-03T02:59:41;9.67;;;7.43;;
10934;SDS011;5520;45.752;4.874;2022-09-03T03:02:11;11.27;;;7.70;;
10934;SDS011;5520;45.752;4.874;2022-09-03T03:04:39;10.63;;;7.50;;
10934;SDS011;5520;45.752;4.874;2022-09-03T03:07:08;10.33;;;7.33;;
10934;SDS011;5520;45.752;4.874;2022-09-03T03:09:37;10.87;;;8.30;;
10934;SDS011;5520;45.752;4.874;2022-09-03T03:12:05;8.90;;;7.97;;
10934;SDS011;5520;45.752;4.874;2022-09-03T03:14:34;11.63;;;7.73;;
10934;SDS011;5520;45.752;4.874;2022-09-03T03:17:02;9.57;;;8.07;;
10934;SDS011;5520;45.752;4.874;2022-09-03T03:19:30;10.47;;;7.57;;
10934;SDS011;5520;45.752;4.874;2022-09-03T03:21:58;10.80;;;8.23;;
10934;SDS011;5520;45.752;4.874;2022-09-03T03:24:26;9.13;;;8.03;;
10934;SDS011;5520;45.752;4.874;2022-09-03T03:26:56;11.77;;;7.87;;
10934;SDS011;5520;45.752;4.874;2022-09-03T03:29:24;10.60;;;7.70;;
10934;SDS011;5520;45.752;4.874;2022-09-03T03:31:52;10.93;;;7.83;;
10934;SDS011;5520;45.752;4.874;2022-09-03T03:34:20;10.67;;;8.00;;
10934;SDS011;5520;45.752;4.874;2022-09-03T03:36:48;10.97;;;8.43;;
10934;SDS011;5520;45.752;4.874;2022-09-03T03:39:16;10.40;;;8.53;;
10934;SDS011;5520;45.752;4.874;2022-09-03T03:41:45;11.57;;;9.03;;
10934;SDS011;5520;45.752;4.874;2022-09-03T03:44:14;11.00;;;8.80;;
10934;SDS011;5520;45.752;4.874;2022-09-03T03:46:43;8.80;;;7.73;;
10934;SDS011;5520;45.752;4.874;2022-09-03T03:49:11;11.27;;;7.97;;
10934;SDS011;5520;45.752;4.874;2022-09-03T03:51:38;9.80;;;7.83;;
10934;SDS011;5520;45.752;4.874;2022-09-03T03:54:07;12.73;;;8.70;;
10934;SDS011;5520;45.752;4.874;2022-09-03T03:56:36;10.33;;;7.87;;
10934;SDS011;5520;45.752;4.874;2022-09-03T03:59:04;11.73;;;8.80;;
10934;SDS011;5520;45.752;4.874;2022-09-03T04:01:34;12.23;;;9.33;;
10934;SDS011;5520;45.752;4.874;2022-09-03T04:04:02;13.07;;;8.70;;
10934;SDS011;5520;45.752;4.874;2022-09-03T04:06:31;12.20;;;8.70;;
10934;SDS011;5520;45.752;4.874;2022-09-03T04:08:59;10.90;;;9.03;;
10934;SDS011;5520;45.752;4.874;2022-09-03T04:11:27;9.47;;;8.37;;
10934;SDS011;5520;45.752;4.874;2022-09-03T04:13:54;19.07;;;8.63;;
10934;SDS011;5520;45.752;4.874;2022-09-03T04:16:23;13.70;;;8.87;;
10934;SDS011;5520;45.752;4.874;2022-09-03T04:18:53;12.33;;;9.20;;
10934;SDS011;5520;45.752;4.874;2022-09-03T04:21:22;12.03;;;8.37;;
10934;SDS011;5520;45.752;4.874;2022-09-03T04:23:54;13.53;;;7.80;;
10934;SDS011;5520;45.752;4.874;2022-09-03T04:26:23;12.40;;;8.30;;
10934;SDS011;5520;45.752;4.874;2022-09-03T04:28:51;12.83;;;9.07;;
10934;SDS011;5520;45.752;4.874;2022-09-03T04:31:19;11.97;;;8.57;;
10934;SDS011;5520;45.752;4.874;2022-09-03T04:33:48;11.50;;;7.63;;
10934;SDS011;5520;45.752;4.874;2022-09-03T04:36:18;10.53;;;7.00;;
10934;SDS011;5520;45.752;4.874;2022-09-03T04:38:48;11.60;;;7.50;;
10934;SDS011;5520;45.752;4.874;2022-09-03T04:41:16;10.73;;;6.97;;
10934;SDS011;5520;45.752;4.874;2022-09-03T04:43:44;9.03;;;6.97;;
10934;SDS011;5520;45.752;4.874;2022-09-03T04:46:17;11.90;;;6.90;;
10934;SDS011;5520;45.752;4.874;2022-09-03T04:48:46;8.23;;;7.10;;
10934;SDS011;5520;45.752;4.874;2022-09-03T04:51:16;9.37;;;6.47;;
10934;SDS011;5520;45.752;4.874;2022-09-03T04:53:46;7.60;;;6.10;;
10934;SDS011;5520;45.752;4.874;2022-09-03T04:56:16;11.37;;;7.07;;
10934;SDS011;5520;45.752;4.874;2022-09-03T04:58:44;6.67;;;5.97;;
10934;SDS011;5520;45.752;4.874;2022-09-03T05:01:17;7.33;;;5.83;;
10934;SDS011;5520;45.752;4.874;2022-09-03T05:03:45;8.43;;;5.50;;
10934;SDS011;5520;45.752;4.874;2022-09-03T05:06:13;6.80;;;6.07;;
10934;SDS011;5520;45.752;4.874;2022-09-03T05:08:42;8.20;;;5.80;;
10934;SDS011;5520;45.752;4.874;2022-09-03T05:11:14;9.03;;;5.70;;
10934;SDS011;5520;45.752;4.874;2022-09-03T05:13:46;6.90;;;5.93;;
10934;SDS011;5520;45.752;4.874;2022-09-03T05:16:15;8.87;;;5.73;;
10934;SDS011;5520;45.752;4.874;2022-09-03T05:18:43;7.33;;;5.80;;
10934;SDS011;5520;45.752;4.874;2022-09-03T05:21:12;6.67;;;5.77;;
10934;SDS011;5520;45.752;4.874;2022-09-03T05:23:41;9.33;;;6.30;;
10934;SDS011;5520;45.752;4.874;2022-09-03T05:26:10;7.00;;;5.90;;
10934;SDS011;5520;45.752;4.874;2022-09-03T05:28:40;11.03;;;5.87;;
10934;SDS011;5520;45.752;4.874;2022-09-03T05:31:09;7.00;;;5.67;;
10934;SDS011;5520;45.752;4.874;2022-09-03T05:33:43;6.90;;;5.90;;
10934;SDS011;5520;45.752;4.874;2022-09-03T05:36:11;10.17;;;6.70;;
10934;SDS011;5520;45.752;4.874;2022-09-03T05:38:39;8.97;;;6.13;;
10934;SDS011;5520;45.752;4.874;2022-09-03T05:41:08;7.30;;;6.60;;
10934;SDS011;5520;45.752;4.874;2022-09-03T05:43:41;9.83;;;5.80;;
10934;SDS011;5520;45.752;4.874;2022-09-03T05:46:09;8.50;;;5.50;;
10934;SDS011;5520;45.752;4.874;2022-09-03T05:48:41;7.80;;;6.30;;
10934;SDS011;5520;45.752;4.874;2022-09-03T05:51:10;10.83;;;6.30;;
10934;SDS011;5520;45.752;4.874;2022-09-03T05:53:39;7.30;;;6.43;;
10934;SDS011;5520;45.752;4.874;2022-09-03T05:56:08;9.13;;;5.87;;
10934;SDS011;5520;45.752;4.874;2022-09-03T05:58:38;8.87;;;6.23;;
10934;SDS011;5520;45.752;4.874;2022-09-03T06:01:10;8.03;;;6.33;;
10934;SDS011;5520;45.752;4.874;2022-09-03T06:03:39;9.80;;;6.43;;
10934;SDS011;5520;45.752;4.874;2022-09-03T06:06:07;8.67;;;6.60;;
10934;SDS011;5520;45.752;4.874;2022-09-03T06:08:36;12.40;;;6.50;;
10934;SDS011;5520;45.752;4.874;2022-09-03T06:11:04;7.83;;;6.20;;
10934;SDS011;5520;45.752;4.874;2022-09-03T06:13:33;8.67;;;6.70;;
10934;SDS011;5520;45.752;4.874;2022-09-03T06:16:02;9.80;;;6.80;;
10934;SDS011;5520;45.752;4.874;2022-09-03T06:18:32;10.37;;;6.57;;
10934;SDS011;5520;45.752;4.874;2022-09-03T06:21:00;9.03;;;7.20;;
10934;SDS011;5520;45.752;4.874;2022-09-03T06:23:29;9.83;;;7.43;;
10934;SDS011;5520;45.752;4.874;2022-09-03T06:26:01;10.93;;;6.83;;
10934;SDS011;5520;45.752;4.874;2022-09-03T06:28:31;13.63;;;8.60;;
10934;SDS011;5520;45.752;4.874;2022-09-03T06:31:00;12.67;;;7.67;;
10934;SDS011;5520;45.752;4.874;2022-09-03T06:33:28;8.33;;;7.30;;
10934;SDS011;5520;45.752;4.874;2022-09-03T06:35:59;10.40;;;7.10;;
10934;SDS011;5520;45.752;4.874;2022-09-03T06:38:32;8.33;;;7.23;;
10934;SDS011;5520;45.752;4.874;2022-09-03T06:41:02;9.30;;;7.33;;
10934;SDS011;5520;45.752;4.874;2022-09-03T06:43:31;12.57;;;7.20;;
10934;SDS011;5520;45.752;4.874;2022-09-03T06:46:00;11.33;;;7.57;;
10934;SDS011;5520;45.752;4.874;2022-09-03T06:48:29;9.93;;;6.60;;
10934;SDS011;5520;45.752;4.874;2022-09-03T06:50:59;10.23;;;6.90;;
10934;SDS011;5520;45.752;4.874;2022-09-03T06:53:28;10.17;;;6.97;;
10934;SDS011;5520;45.752;4.874;2022-09-03T06:55:58;13.20;;;6.57;;
10934;SDS011;5520;45.752;4.874;2022-09-03T06:58:27;8.90;;;6.80;;
10934;SDS011;5520;45.752;4.874;2022-09-03T07:00:59;11.43;;;7.07;;
10934;SDS011;5520;45.752;4.874;2022-09-03T07:03:28;9.73;;;6.63;;
10934;SDS011;5520;45.752;4.874;2022-09-03T07:06:00;8.83;;;6.77;;
10934;SDS011;5520;45.752;4.874;2022-09-03T07:08:28;9.10;;;6.87;;
10934;SDS011;5520;45.752;4.874;2022-09-03T07:10:58;10.83;;;7.63;;
10934;SDS011;5520;45.752;4.874;2022-09-03T07:13:27;8.87;;;6.83;;
10934;SDS011;5520;45.752;4.874;2022-09-03T07:15:58;8.90;;;6.90;;
10934;SDS011;5520;45.752;4.874;2022-09-03T07:18:27;8.20;;;6.33;;
10934;SDS011;5520;45.752;4.874;2022-09-03T07:20:58;8.40;;;6.50;;
10934;SDS011;5520;45.752;4.874;2022-09-03T07:23:28;7.33;;;6.10;;
10934;SDS011;5520;45.752;4.874;2022-09-03T07:25:57;7.43;;;5.73;;
10934;SDS011;5520;45.752;4.874;2022-09-03T07:28:25;6.27;;;5.67;;
10934;SDS011;5520;45.752;4.874;2022-09-03T07:30:55;10.07;;;5.23;;
10934;SDS011;5520;45.752;4.874;2022-09-03T07:33:27;7.57;;;5.93;;
10934;SDS011;5520;45.752;4.874;2022-09-03T07:36:02;9.17;;;5.20;;
10934;SDS011;5520;45.752;4.874;2022-09-03T07:38:33;5.37;;;4.37;;
10934;SDS011;5520;45.752;4.874;2022-09-03T07:41:02;5.87;;;4.57;;
10934;SDS011;5520;45.752;4.874;2022-09-03T07:43:32;7.07;;;4.60;;
10934;SDS011;5520;45.752;4.874;2022-09-03T07:46:01;5.03;;;4.53;;
10934;SDS011;5520;45.752;4.874;2022-09-03T07:48:29;6.67;;;4.90;;
10934;SDS011;5520;45.752;4.874;2022-09-03T07:51:02;8.47;;;4.67;;
10934;SDS011;5520;45.752;4.874;2022-09-03T07:53:30;5.13;;;4.60;;
10934;SDS011;5520;45.752;4.874;2022-09-03T07:56:04;6.10;;;4.50;;
10934;SDS011;5520;45.752;4.874;2022-09-03T07:58:33;6.30;;;4.40;;
10934;SDS011;5520;45.752;4.874;2022-09-03T08:01:03;8.93;;;5.10;;
10934;SDS011;5520;45.752;4.874;2022-09-03T08:03:31;7.60;;;5.27;;
10934;SDS011;5520;45.752;4.874;2022-09-03T08:06:00;6.07;;;4.90;;
10934;SDS011;5520;45.752;4.874;2022-09-03T08:08:29;6.60;;;4.50;;
10934;SDS011;5520;45.752;4.874;2022-09-03T08:11:06;6.27;;;4.77;;
10934;SDS011;5520;45.752;4.874;2022-09-03T08:13:37;5.47;;;4.97;;
10934;SDS011;5520;45.752;4.874;2022-09-03T08:16:06;5.10;;;4.60;;
10934;SDS011;5520;45.752;4.874;2022-09-03T08:18:35;6.37;;;4.47;;
10934;SDS011;5520;45.752;4.874;2022-09-03T08:21:04;5.57;;;4.30;;
10934;SDS011;5520;45.752;4.874;2022-09-03T08:23:35;4.37;;;3.53;;
10934;SDS011;5520;45.752;4.874;2022-09-03T08:26:04;6.20;;;3.97;;
10934;SDS011;5520;45.752;4.874;2022-09-03T08:28:34;4.30;;;4.00;;
10934;SDS011;5520;45.752;4.874;2022-09-03T08:31:06;6.90;;;4.33;;
10934;SDS011;5520;45.752;4.874;2022-09-03T08:33:35;4.30;;;3.90;;
10934;SDS011;5520;45.752;4.874;2022-09-03T08:36:04;5.30;;;4.23;;
10934;SDS011;5520;45.752;4.874;2022-09-03T08:38:33;5.60;;;3.83;;
10934;SDS011;5520;45.752;4.874;2022-09-03T08:41:02;5.17;;;4.20;;
10934;SDS011;5520;45.752;4.874;2022-09-03T08:43:31;4.97;;;4.20;;
10934;SDS011;5520;45.752;4.874;2022-09-03T08:46:09;4.60;;;4.20;;
10934;SDS011;5520;45.752;4.874;2022-09-03T08:48:37;6.33;;;4.20;;
10934;SDS011;5520;45.752;4.874;2022-09-03T08:51:06;7.63;;;3.73;;
10934;SDS011;5520;45.752;4.874;2022-09-03T08:53:38;6.77;;;4.50;;
10934;SDS011;5520;45.752;4.874;2022-09-03T08:56:09;3.63;;;3.33;;
10934;SDS011;5520;45.752;4.874;2022-09-03T08:58:38;6.57;;;4.10;;
10934;SDS011;5520;45.752;4.874;2022-09-03T09:01:12;4.43;;;4.03;;
10934;SDS011;5520;45.752;4.874;2022-09-03T09:03:46;4.47;;;3.90;;
10934;SDS011;5520;45.752;4.874;2022-09-03T09:06:18;6.07;;;4.30;;
10934;SDS011;5520;45.752;4.874;2022-09-03T09:08:51;6.40;;;3.73;;
10934;SDS011;5520;45.752;4.874;2022-09-03T09:11:26;4.47;;;3.77;;
10934;SDS011;5520;45.752;4.874;2022-09-03T09:13:58;4.40;;;4.00;;
10934;SDS011;5520;45.752;4.874;2022-09-03T09:16:33;4.60;;;4.00;;
10934;SDS011;5520;45.752;4.874;2022-09-03T09:19:12;7.03;;;4.20;;
10934;SDS011;5520;45.752;4.874;2022-09-03T09:21:45;5.37;;;4.53;;
10934;SDS011;5520;45.752;4.874;2022-09-03T09:24:17;8.23;;;4.37;;
10934;SDS011;5520;45.752;4.874;2022-09-03T09:26:49;6.97;;;4.83;;
10934;SDS011;5520;45.752;4.874;2022-09-03T09:29:18;6.83;;;4.10;;
10934;SDS011;5520;45.752;4.874;2022-09-03T09:31:49;8.77;;;4.70;;
10934;SDS011;5520;45.752;4.874;2022-09-03T09:34:17;5.03;;;4.37;;
10934;SDS011;5520;45.752;4.874;2022-09-03T09:36:46;6.83;;;4.27;;
10934;SDS011;5520;45.752;4.874;2022-09-03T09:39:15;4.73;;;4.23;;
10934;SDS011;5520;45.752;4.874;2022-09-03T09:41:55;5.70;;;4.10;;
10934;SDS011;5520;45.752;4.874;2022-09-03T09:44:24;5.93;;;4.13;;
10934;SDS011;5520;45.752;4.874;2022-09-03T09:49:51;4.50;;;3.90;;
10934;SDS011;5520;45.752;4.874;2022-09-03T09:52:19;10.03;;;5.60;;
10934;SDS011;5520;45.752;4.874;2022-09-03T09:54:51;4.30;;;3.70;;
10934;SDS011;5520;45.752;4.874;2022-09-03T09:57:21;6.70;;;3.80;;
10934;SDS011;5520;45.752;4.874;2022-09-03T09:59:49;4.20;;;3.43;;
10934;SDS011;5520;45.752;4.874;2022-09-03T10:02:19;5.87;;;3.47;;
10934;SDS011;5520;45.752;4.874;2022-09-03T10:04:54;4.20;;;3.80;;
10934;SDS011;5520;45.752;4.874;2022-09-03T10:07:24;6.07;;;3.60;;
10934;SDS011;5520;45.752;4.874;2022-09-03T10:09:59;8.60;;;4.07;;
10934;SDS011;5520;45.752;4.874;2022-09-03T10:12:29;5.70;;;3.20;;
10934;SDS011;5520;45.752;4.874;2022-09-03T10:15:02;6.83;;;3.90;;
10934;SDS011;5520;45.752;4.874;2022-09-03T10:17:39;8.67;;;3.90;;
10934;SDS011;5520;45.752;4.874;2022-09-03T10:20:11;8.83;;;3.53;;
10934;SDS011;5520;45.752;4.874;2022-09-03T10:22:59;4.10;;;3.10;;
10934;SDS011;5520;45.752;4.874;2022-09-03T10:25:30;5.77;;;3.23;;
10934;SDS011;5520;45.752;4.874;2022-09-03T10:28:01;5.37;;;2.90;;
10934;SDS011;5520;45.752;4.874;2022-09-03T10:30:31;4.87;;;2.80;;
10934;SDS011;5520;45.752;4.874;2022-09-03T10:33:07;3.30;;;3.00;;
10934;SDS011;5520;45.752;4.874;2022-09-03T10:35:40;4.43;;;2.60;;
10934;SDS011;5520;45.752;4.874;2022-09-03T10:38:13;3.10;;;2.80;;
10934;SDS011;5520;45.752;4.874;2022-09-03T10:40:43;4.63;;;3.40;;
10934;SDS011;5520;45.752;4.874;2022-09-03T10:43:29;3.27;;;2.80;;
10934;SDS011;5520;45.752;4.874;2022-09-03T10:46:02;4.47;;;2.97;;
10934;SDS011;5520;45.752;4.874;2022-09-03T10:48:38;3.43;;;2.70;;
10934;SDS011;5520;45.752;4.874;2022-09-03T10:51:11;3.63;;;2.70;;
10934;SDS011;5520;45.752;4.874;2022-09-03T10:53:55;3.27;;;2.47;;
10934;SDS011;5520;45.752;4.874;2022-09-03T10:56:27;2.83;;;2.63;;
10934;SDS011;5520;45.752;4.874;2022-09-03T10:59:05;3.37;;;2.67;;
10934;SDS011;5520;45.752;4.874;2022-09-03T11:01:36;2.70;;;2.50;;
10934;SDS011;5520;45.752;4.874;2022-09-03T11:04:12;2.63;;;2.37;;
10934;SDS011;5520;45.752;4.874;2022-09-03T11:06:45;3.03;;;2.70;;
10934;SDS011;5520;45.752;4.874;2022-09-03T11:09:16;2.40;;;2.20;;
10934;SDS011;5520;45.752;4.874;2022-09-03T11:11:48;2.53;;;2.17;;
10934;SDS011;5520;45.752;4.874;2022-09-03T11:14:20;2.23;;;2.13;;
10934;SDS011;5520;45.752;4.874;2022-09-03T11:16:53;3.07;;;2.67;;
10934;SDS011;5520;45.752;4.874;2022-09-03T11:19:22;4.50;;;2.60;;
10934;SDS011;5520;45.752;4.874;2022-09-03T11:21:55;2.70;;;2.50;;
10934;SDS011;5520;45.752;4.874;2022-09-03T11:24:23;3.33;;;2.80;;
10934;SDS011;5520;45.752;4.874;2022-09-03T11:26:54;3.63;;;2.30;;
10934;SDS011;5520;45.752;4.874;2022-09-03T11:29:28;2.53;;;2.10;;
10934;SDS011;5520;45.752;4.874;2022-09-03T11:31:57;5.03;;;2.70;;
10934;SDS011;5520;45.752;4.874;2022-09-03T11:34:29;3.57;;;2.63;;
10934;SDS011;5520;45.752;4.874;2022-09-03T11:37:13;2.47;;;2.27;;
10934;SDS011;5520;45.752;4.874;2022-09-03T11:39:43;4.77;;;2.77;;
10934;SDS011;5520;45.752;4.874;2022-09-03T11:42:12;3.10;;;2.57;;
10934;SDS011;5520;45.752;4.874;2022-09-03T11:44:49;3.53;;;2.43;;
10934;SDS011;5520;45.752;4.874;2022-09-03T11:47:20;2.40;;;2.20;;
10934;SDS011;5520;45.752;4.874;2022-09-03T11:49:49;4.77;;;3.00;;
10934;SDS011;5520;45.752;4.874;2022-09-03T11:52:26;6.80;;;3.97;;
10934;SDS011;5520;45.752;4.874;2022-09-03T11:54:54;7.80;;;3.90;;
10934;SDS011;5520;45.752;4.874;2022-09-03T11:57:25;7.23;;;4.43;;
10934;SDS011;5520;45.752;4.874;2022-09-03T11:59:54;5.97;;;4.07;;
10934;SDS011;5520;45.752;4.874;2022-09-03T12:02:34;5.33;;;4.00;;
10934;SDS011;5520;45.752;4.874;2022-09-03T12:05:08;7.80;;;4.27;;
10934;SDS011;5520;45.752;4.874;2022-09-03T12:07:46;7.53;;;3.80;;
10934;SDS011;5520;45.752;4.874;2022-09-03T12:10:16;4.33;;;3.60;;
10934;SDS011;5520;45.752;4.874;2022-09-03T12:15:53;3.77;;;3.10;;
10934;SDS011;5520;45.752;4.874;2022-09-03T12:18:26;3.23;;;2.73;;
10934;SDS011;5520;45.752;4.874;2022-09-03T12:21:00;3.83;;;2.90;;
10934;SDS011;5520;45.752;4.874;2022-09-03T12:23:30;4.63;;;2.90;;
10934;SDS011;5520;45.752;4.874;2022-09-03T12:25:59;4.00;;;3.53;;
10934;SDS011;5520;45.752;4.874;2022-09-03T12:28:29;4.80;;;3.80;;
10934;SDS011;5520;45.752;4.874;2022-09-03T12:31:04;4.07;;;3.20;;
10934;SDS011;5520;45.752;4.874;2022-09-03T12:33:39;3.80;;;3.00;;
10934;SDS011;5520;45.752;4.874;2022-09-03T12:36:08;2.83;;;2.63;;
10934;SDS011;5520;45.752;4.874;2022-09-03T12:38:38;3.60;;;3.13;;
10934;SDS011;5520;45.752;4.874;2022-09-03T12:41:27;3.83;;;3.40;;
10934;SDS011;5520;45.752;4.874;2022-09-03T12:43:57;2.80;;;2.60;;
10934;SDS011;5520;45.752;4.874;2022-09-03T12:46:26;4.20;;;2.80;;
10934;SDS011;5520;45.752;4.874;2022-09-03T12:49:00;2.87;;;2.67;;
10934;SDS011;5520;45.752;4.874;2022-09-03T12:51:50;3.67;;;2.83;;
10934;SDS011;5520;45.752;4.874;2022-09-03T12:54:32;2.90;;;2.60;;
10934;SDS011;5520;45.752;4.874;2022-09-03T12:57:00;2.80;;;2.60;;
10934;SDS011;5520;45.752;4.874;2022-09-03T12:59:30;3.87;;;2.60;;
10934;SDS011;5520;45.752;4.874;2022-09-03T13:02:04;11.53;;;5.70;;
10934;SDS011;5520;45.752;4.874;2022-09-03T13:04:33;3.57;;;2.70;;
10934;SDS011;5520;45.752;4.874;2022-09-03T13:07:02;4.00;;;2.73;;
10934;SDS011;5520;45.752;4.874;2022-09-03T13:09:34;3.00;;;2.73;;
10934;SDS011;5520;45.752;4.874;2022-09-03T13:12:03;3.33;;;2.97;;
10934;SDS011;5520;45.752;4.874;2022-09-03T13:14:40;3.53;;;2.50;;
10934;SDS011;5520;45.752;4.874;2022-09-03T13:20:10;4.00;;;3.03;;
10934;SDS011;5520;45.752;4.874;2022-09-03T13:22:44;2.67;;;2.47;;
10934;SDS011;5520;45.752;4.874;2022-09-03T13:25:20;4.13;;;2.93;;
10934;SDS011;5520;45.752;4.874;2022-09-03T13:27:54;4.27;;;3.07;;
10934;SDS011;5520;45.752;4.874;2022-09-03T13:30:28;4.33;;;3.33;;
10934;SDS011;5520;45.752;4.874;2022-09-03T13:32:59;8.97;;;3.50;;
10934;SDS011;5520;45.752;4.874;2022-09-03T13:35:29;7.37;;;3.40;;
10934;SDS011;5520;45.752;4.874;2022-09-03T13:38:03;6.47;;;4.80;;
10934;SDS011;5520;45.752;4.874;2022-09-03T13:40:36;5.33;;;3.57;;
10934;SDS011;5520;45.752;4.874;2022-09-03T13:43:17;4.33;;;3.50;;
10934;SDS011;5520;45.752;4.874;2022-09-03T13:45:50;2.83;;;2.50;;
10934;SDS011;5520;45.752;4.874;2022-09-03T13:48:23;4.73;;;2.63;;
10934;SDS011;5520;45.752;4.874;2022-09-03T13:51:10;8.93;;;4.37;;
10934;SDS011;5520;45.752;4.874;2022-09-03T13:53:48;6.07;;;3.10;;
10934;SDS011;5520;45.752;4.874;2022-09-03T13:56:28;5.73;;;3.47;;
10934;SDS011;5520;45.752;4.874;2022-09-03T13:59:03;10.30;;;3.33;;
10934;SDS011;5520;45.752;4.874;2022-09-03T14:01:42;5.93;;;3.13;;
10934;SDS011;5520;45.752;4.874;2022-09-03T14:04:13;5.97;;;3.20;;
10934;SDS011;5520;45.752;4.874;2022-09-03T14:06:45;6.23;;;2.87;;
10934;SDS011;5520;45.752;4.874;2022-09-03T14:09:19;3.57;;;1.77;;
10934;SDS011;5520;45.752;4.874;2022-09-03T14:11:53;4.03;;;1.90;;
10934;SDS011;5520;45.752;4.874;2022-09-03T14:14:30;3.90;;;2.40;;
10934;SDS011;5520;45.752;4.874;2022-09-03T14:17:05;2.50;;;1.93;;
10934;SDS011;5520;45.752;4.874;2022-09-03T14:19:39;3.47;;;2.10;;
10934;SDS011;5520;45.752;4.874;2022-09-03T14:22:10;6.47;;;2.80;;
10934;SDS011;5520;45.752;4.874;2022-09-03T14:24:43;2.57;;;2.27;;
10934;SDS011;5520;45.752;4.874;2022-09-03T14:27:22;4.07;;;2.37;;
10934;SDS011;5520;45.752;4.874;2022-09-03T14:29:52;4.17;;;2.27;;
10934;SDS011;5520;45.752;4.874;2022-09-03T14:32:26;6.60;;;2.63;;
10934;SDS011;5520;45.752;4.874;2022-09-03T14:34:58;4.37;;;2.37;;
10934;SDS011;5520;45.752;4.874;2022-09-03T14:37:31;3.70;;;2.40;;
10934;SDS011;5520;45.752;4.874;2022-09-03T14:40:09;2.73;;;2.53;;
10934;SDS011;5520;45.752;4.874;2022-09-03T14:42:43;3.50;;;2.70;;
10934;SDS011;5520;45.752;4.874;2022-09-03T14:45:17;3.37;;;2.40;;
10934;SDS011;5520;45.752;4.874;2022-09-03T14:47:56;5.73;;;2.70;;
10934;SDS011;5520;45.752;4.874;2022-09-03T14:50:33;2.73;;;2.53;;
10934;SDS011;5520;45.752;4.874;2022-09-03T14:53:07;3.10;;;2.67;;
10934;SDS011;5520;45.752;4.874;2022-09-03T14:55:42;5.67;;;3.13;;
10934;SDS011;5520;45.752;4.874;2022-09-03T15:01:02;4.47;;;2.73;;
10934;SDS011;5520;45.752;4.874;2022-09-03T15:03:42;5.80;;;2.93;;
10934;SDS011;5520;45.752;4.874;2022-09-03T15:06:13;5.53;;;3.03;;
10934;SDS011;5520;45.752;4.874;2022-09-03T15:09:04;2.80;;;2.50;;
10934;SDS011;5520;45.752;4.874;2022-09-03T15:11:41;5.10;;;3.10;;
10934;SDS011;5520;45.752;4.874;2022-09-03T15:14:12;3.97;;;2.70;;
10934;SDS011;5520;45.752;4.874;2022-09-03T15:16:45;6.93;;;3.10;;
10934;SDS011;5520;45.752;4.874;2022-09-03T15:19:17;4.53;;;3.47;;
10934;SDS011;5520;45.752;4.874;2022-09-03T15:21:52;4.60;;;2.97;;
10934;SDS011;5520;45.752;4.874;2022-09-03T15:24:25;5.70;;;3.00;;
10934;SDS011;5520;45.752;4.874;2022-09-03T15:26:59;3.27;;;2.97;;
10934;SDS011;5520;45.752;4.874;2022-09-03T15:29:46;4.50;;;3.13;;
10934;SDS011;5520;45.752;4.874;2022-09-03T15:32:19;3.37;;;2.63;;
10934;SDS011;5520;45.752;4.874;2022-09-03T15:34:59;2.83;;;2.63;;
10934;SDS011;5520;45.752;4.874;2022-09-03T15:37:31;3.70;;;2.60;;